Time;durP1;ratioP1;P1;durP2;ratioP2;P2;SDS_P1;SDS_P2;PMS_P1;PMS_P2;Temp;Humidity;BMP_temperature;BMP_pressure;BME280_temperature;BME280_humidity;BME280_pressure;Samples;Min_cycle;Max_cycle;Signal;HPM_P1;HPM_P2
2023/01/23 00:00:38;;;;;;;13.60;9.80;;;7.40;60.10;;;;;;5031921;28;20622;-64
2023/01/23 00:03:04;;;;;;;11.43;9.30;;;7.40;60.00;;;;;;5023925;28;20194;-64
2023/01/23 00:05:30;;;;;;;12.03;9.97;;;7.30;60.30;;;;;;5019706;28;20935;-63
2023/01/23 00:07:56;;;;;;;11.10;9.53;;;7.20;60.70;;;;;;5027431;28;20197;-63
2023/01/23 00:21:20;;;;;;;14.20;10.53;;;7.20;61.20;;;;;;5034951;28;20438;-63
2023/01/23 00:23:48;;;;;;;15.37;10.97;;;7.10;61.30;;;;;;5024433;28;20513;-63
2023/01/23 00:26:16;;;;;;;12.03;10.07;;;7.20;61.40;;;;;;5028865;28;20518;-63
2023/01/23 00:28:43;;;;;;;15.00;10.83;;;7.20;61.20;;;;;;5027592;28;20444;-63
2023/01/23 00:31:12;;;;;;;13.03;10.30;;;7.20;61.20;;;;;;5028622;28;20484;-63
2023/01/23 00:33:39;;;;;;;14.40;10.50;;;7.20;61.20;;;;;;5023336;28;20493;-63
2023/01/23 00:36:05;;;;;;;13.30;10.20;;;7.20;61.10;;;;;;5027447;28;20799;-63
2023/01/23 00:38:31;;;;;;;15.63;12.17;;;7.30;61.30;;;;;;5023895;28;20502;-63
2023/01/23 00:40:57;;;;;;;12.30;9.57;;;7.20;61.10;;;;;;5030332;28;20931;-63
2023/01/23 00:43:23;;;;;;;11.27;8.60;;;7.20;61.10;;;;;;5029623;28;20472;-63
2023/01/23 00:45:49;;;;;;;12.60;9.20;;;7.20;61.00;;;;;;5029841;28;20189;-63
2023/01/23 00:48:15;;;;;;;14.23;10.57;;;7.20;60.90;;;;;;5031630;28;20436;-63
2023/01/23 00:50:41;;;;;;;13.90;9.00;;;7.30;60.80;;;;;;5032439;28;20919;-63
2023/01/23 00:53:06;;;;;;;11.67;8.77;;;7.30;60.70;;;;;;5031659;28;20221;-63
2023/01/23 00:55:32;;;;;;;9.37;7.80;;;7.30;60.70;;;;;;5043063;28;20196;-63
2023/01/23 00:57:58;;;;;;;10.00;8.57;;;7.20;60.40;;;;;;5031346;28;20220;-63
2023/01/23 01:00:24;;;;;;;12.80;10.00;;;7.20;60.20;;;;;;5030857;28;20692;-63
2023/01/23 01:02:49;;;;;;;10.03;8.87;;;7.20;60.20;;;;;;5032525;28;20494;-63
2023/01/23 01:05:17;;;;;;;10.67;8.47;;;7.20;60.20;;;;;;5033249;28;20271;-63
2023/01/23 01:07:43;;;;;;;10.43;9.03;;;7.20;60.00;;;;;;5035262;28;20189;-63
2023/01/23 01:10:10;;;;;;;11.50;8.30;;;7.20;60.00;;;;;;5035555;28;20458;-63
2023/01/23 01:12:36;;;;;;;11.30;9.27;;;7.20;59.90;;;;;;5033497;28;20970;-63
2023/01/23 01:15:03;;;;;;;13.03;7.97;;;7.20;60.00;;;;;;5025528;28;20468;-63
2023/01/23 01:17:28;;;;;;;12.87;9.87;;;7.20;59.90;;;;;;5020543;28;20440;-63
2023/01/23 01:19:54;;;;;;;11.30;9.00;;;7.20;59.80;;;;;;5032518;28;20493;-63
2023/01/23 01:22:20;;;;;;;10.57;8.87;;;7.30;59.90;;;;;;5030195;28;20198;-63
2023/01/23 01:24:45;;;;;;;12.40;9.10;;;7.20;59.80;;;;;;5033049;28;20201;-63
2023/01/23 01:27:11;;;;;;;12.80;10.03;;;7.30;59.90;;;;;;5030175;28;20193;-63
2023/01/23 01:29:36;;;;;;;11.67;9.67;;;7.30;59.80;;;;;;5030724;28;20568;-63
2023/01/23 01:32:02;;;;;;;11.23;9.30;;;7.30;59.80;;;;;;5024196;28;20736;-63
2023/01/23 01:34:28;;;;;;;13.77;9.50;;;7.30;60.10;;;;;;5032001;28;20237;-63
2023/01/23 01:36:53;;;;;;;14.00;9.73;;;7.30;60.40;;;;;;5025008;28;20205;-63
2023/01/23 01:39:19;;;;;;;11.33;9.47;;;7.30;60.30;;;;;;5027245;28;20195;-63
2023/01/23 01:41:45;;;;;;;10.37;8.63;;;7.40;61.10;;;;;;5030046;28;20268;-63
2023/01/23 01:44:19;;;;;;;12.40;9.07;;;7.40;60.20;;;;;;5032492;28;20209;-63
2023/01/23 01:46:45;;;;;;;13.10;9.13;;;7.40;60.10;;;;;;5028826;28;20185;-63
2023/01/23 01:49:29;;;;;;;11.77;9.33;;;7.40;59.90;;;;;;5030912;28;20579;-63
2023/01/23 01:52:05;;;;;;;13.20;10.07;;;7.40;59.80;;;;;;5029667;28;20490;-63
2023/01/23 01:54:39;;;;;;;10.80;9.33;;;7.40;59.70;;;;;;5034614;28;20842;-64
2023/01/23 01:57:19;;;;;;;11.87;9.67;;;7.40;59.60;;;;;;5034520;28;20423;-63
2023/01/23 01:59:57;;;;;;;11.43;8.83;;;7.40;59.60;;;;;;5033930;28;20444;-63
2023/01/23 02:02:46;;;;;;;13.80;9.67;;;7.40;59.60;;;;;;5034872;28;20443;-63
2023/01/23 02:05:28;;;;;;;11.00;8.77;;;7.30;59.60;;;;;;5031552;28;20958;-63
2023/01/23 02:08:02;;;;;;;10.50;8.03;;;7.30;59.70;;;;;;5017066;28;20445;-63
2023/01/23 02:10:28;;;;;;;10.30;7.97;;;7.30;59.70;;;;;;5028497;28;20439;-63
2023/01/23 02:12:53;;;;;;;12.97;9.93;;;7.30;59.80;;;;;;5033775;28;20831;-63
2023/01/23 02:15:21;;;;;;;9.47;8.23;;;7.30;59.80;;;;;;5026537;28;20193;-63
2023/01/23 02:17:50;;;;;;;10.33;8.80;;;7.30;59.70;;;;;;5028000;28;20736;-63
2023/01/23 02:20:23;;;;;;;10.83;8.70;;;7.30;59.50;;;;;;5028467;28;20437;-63
2023/01/23 02:23:05;;;;;;;11.00;8.97;;;7.30;59.50;;;;;;5020730;28;20935;-62
2023/01/23 02:25:42;;;;;;;13.80;9.57;;;7.30;59.60;;;;;;5030540;28;20440;-63
2023/01/23 02:28:13;;;;;;;13.13;8.83;;;7.20;59.50;;;;;;5027809;28;20459;-63
2023/01/23 02:30:41;;;;;;;13.80;10.00;;;7.20;59.70;;;;;;5030084;28;20861;-63
2023/01/23 02:33:19;;;;;;;11.37;9.57;;;7.20;59.80;;;;;;5023491;28;20550;-63
2023/01/23 02:35:45;;;;;;;12.87;9.97;;;7.30;60.10;;;;;;5021462;28;20439;-63
2023/01/23 02:38:11;;;;;;;13.80;11.30;;;7.30;60.00;;;;;;5032609;28;20444;-63
2023/01/23 02:40:40;;;;;;;12.30;9.93;;;7.30;60.00;;;;;;5017221;28;20433;-63
2023/01/23 02:43:09;;;;;;;13.47;10.00;;;7.30;59.90;;;;;;5030859;28;20513;-63
2023/01/23 02:45:35;;;;;;;12.27;9.70;;;7.20;59.90;;;;;;5032137;28;20684;-63
2023/01/23 02:48:01;;;;;;;12.10;10.27;;;7.30;60.30;;;;;;5029754;28;20962;-63
2023/01/23 02:50:28;;;;;;;12.17;9.83;;;7.30;60.50;;;;;;5031707;28;20432;-63
2023/01/23 02:52:54;;;;;;;13.57;10.13;;;7.30;60.50;;;;;;5021784;28;20575;-63
2023/01/23 02:55:20;;;;;;;12.80;9.83;;;7.30;60.60;;;;;;5023373;28;20424;-63
2023/01/23 02:57:47;;;;;;;10.83;9.27;;;7.30;60.40;;;;;;5031354;28;20428;-63
2023/01/23 03:00:18;;;;;;;11.10;9.27;;;7.30;60.30;;;;;;5032600;28;20937;-63
2023/01/23 03:02:46;;;;;;;11.20;9.33;;;7.30;60.40;;;;;;5027766;28;20490;-63
2023/01/23 03:05:12;;;;;;;11.47;9.20;;;7.30;60.60;;;;;;5014614;28;20433;-63
2023/01/23 03:07:38;;;;;;;12.13;9.87;;;7.30;60.60;;;;;;5024026;28;20429;-63
2023/01/23 03:10:06;;;;;;;11.50;10.30;;;7.30;60.60;;;;;;5032436;28;20806;-63
2023/01/23 03:12:32;;;;;;;12.27;9.93;;;7.30;60.60;;;;;;5024422;28;20684;-63
2023/01/23 03:14:57;;;;;;;10.40;8.20;;;7.30;60.60;;;;;;5028341;28;20514;-63
2023/01/23 03:17:23;;;;;;;11.73;8.73;;;7.40;60.80;;;;;;5029878;28;20193;-63
2023/01/23 03:19:49;;;;;;;10.03;8.30;;;7.30;60.60;;;;;;5030118;28;20190;-63
2023/01/23 03:22:15;;;;;;;12.13;9.77;;;7.30;60.70;;;;;;5029178;28;20447;-63
2023/01/23 03:24:40;;;;;;;14.27;9.67;;;7.30;60.70;;;;;;5029680;28;20212;-63
2023/01/23 03:27:06;;;;;;;13.97;10.17;;;7.40;60.70;;;;;;5017027;28;20221;-63
2023/01/23 03:32:15;;;;;;;14.63;9.43;;;7.40;60.70;;;;;;5025002;28;20690;-63
2023/01/23 03:34:42;;;;;;;21.43;9.83;;;7.30;60.50;;;;;;5026862;28;20503;-63
2023/01/23 03:37:10;;;;;;;10.30;8.70;;;7.40;60.50;;;;;;5028295;28;20270;-63
2023/01/23 03:42:20;;;;;;;13.00;9.77;;;7.30;60.40;;;;;;5027038;28;20531;-63
2023/01/23 03:44:47;;;;;;;12.73;8.73;;;7.30;60.40;;;;;;5026844;28;20515;-63
2023/01/23 03:47:12;;;;;;;13.60;9.77;;;7.30;60.40;;;;;;5025755;28;20432;-63
2023/01/23 03:49:38;;;;;;;10.83;9.67;;;7.40;60.40;;;;;;5026191;28;20445;-63
2023/01/23 03:52:04;;;;;;;11.57;9.73;;;7.30;60.30;;;;;;5026828;28;20201;-63
2023/01/23 03:54:30;;;;;;;11.30;9.17;;;7.30;60.20;;;;;;5036287;28;20224;-63
2023/01/23 03:56:55;;;;;;;13.87;9.07;;;7.40;60.00;;;;;;5027401;28;20663;-63
2023/01/23 03:59:21;;;;;;;15.57;10.27;;;7.30;60.00;;;;;;5018908;28;20197;-63
2023/01/23 04:01:47;;;;;;;12.77;9.40;;;7.40;60.00;;;;;;5027253;28;20193;-63
2023/01/23 04:04:13;;;;;;;13.17;10.00;;;7.40;59.80;;;;;;5024341;28;20181;-63
2023/01/23 04:06:39;;;;;;;12.30;9.37;;;7.40;59.70;;;;;;5025673;28;20487;-63
2023/01/23 04:09:04;;;;;;;11.37;9.60;;;7.40;59.70;;;;;;5029106;28;20992;-63
2023/01/23 04:11:31;;;;;;;13.50;10.07;;;7.50;59.80;;;;;;5024189;28;20272;-63
2023/01/23 04:13:56;;;;;;;13.10;10.00;;;7.60;59.70;;;;;;5023524;28;20225;-63
2023/01/23 04:16:22;;;;;;;14.10;10.30;;;7.50;59.50;;;;;;5022046;28;20538;-63
2023/01/23 04:18:49;;;;;;;13.73;10.00;;;7.50;59.70;;;;;;5028472;28;20220;-63
2023/01/23 04:21:15;;;;;;;10.97;8.90;;;7.40;59.50;;;;;;5030201;28;20456;-63
2023/01/23 04:23:40;;;;;;;11.50;9.67;;;7.50;59.90;;;;;;5030990;28;20448;-63
2023/01/23 04:26:06;;;;;;;14.37;10.13;;;7.50;60.00;;;;;;5028378;28;20185;-63
2023/01/23 04:28:32;;;;;;;12.60;9.50;;;7.50;60.10;;;;;;5028590;28;20285;-63
2023/01/23 04:30:57;;;;;;;13.47;9.73;;;7.50;59.90;;;;;;5030067;28;20989;-63
2023/01/23 04:33:23;;;;;;;16.10;12.50;;;7.50;60.10;;;;;;5026161;28;20591;-63
2023/01/23 04:36:01;;;;;;;26.83;15.97;;;7.50;60.20;;;;;;5030708;28;20267;-63
2023/01/23 04:38:28;;;;;;;19.10;13.77;;;7.50;60.10;;;;;;5029320;28;20196;-63
2023/01/23 04:40:54;;;;;;;15.80;11.17;;;7.50;59.90;;;;;;5024249;28;20444;-63
2023/01/23 04:43:20;;;;;;;11.50;9.03;;;7.50;59.90;;;;;;5020285;28;20493;-63
2023/01/23 04:45:48;;;;;;;13.17;10.47;;;7.50;60.20;;;;;;5028219;28;20801;-63
2023/01/23 04:48:14;;;;;;;14.67;9.50;;;7.50;60.40;;;;;;5029269;28;20796;-63
2023/01/23 04:50:39;;;;;;;12.63;9.47;;;7.50;60.30;;;;;;5029466;28;20444;-63
2023/01/23 04:53:05;;;;;;;13.20;10.40;;;7.50;60.00;;;;;;5012128;28;20224;-63
2023/01/23 04:55:32;;;;;;;10.87;9.73;;;7.50;59.80;;;;;;5027978;28;21782;-63
2023/01/23 04:57:58;;;;;;;13.33;10.37;;;7.50;59.60;;;;;;5029022;28;20672;-63
2023/01/23 05:00:24;;;;;;;13.50;9.97;;;7.50;59.60;;;;;;5029963;28;20428;-63
2023/01/23 05:02:50;;;;;;;11.50;9.20;;;7.50;59.60;;;;;;5028920;28;20201;-63
2023/01/23 05:05:22;;;;;;;12.03;9.53;;;7.50;59.40;;;;;;5023524;28;20201;-63
2023/01/23 05:07:48;;;;;;;13.10;9.70;;;7.50;59.40;;;;;;5030390;28;20468;-63
2023/01/23 05:10:14;;;;;;;12.63;9.57;;;7.40;59.20;;;;;;5029869;28;20424;-63
2023/01/23 05:12:40;;;;;;;12.60;9.50;;;7.50;59.30;;;;;;5028312;28;20968;-63
2023/01/23 05:15:07;;;;;;;14.43;10.10;;;7.50;59.20;;;;;;5024624;28;20447;-64
2023/01/23 05:17:33;;;;;;;11.57;9.47;;;7.50;59.00;;;;;;5026490;28;20444;-63
2023/01/23 05:19:58;;;;;;;15.33;10.73;;;7.50;59.00;;;;;;5022456;28;20433;-63
2023/01/23 05:22:24;;;;;;;11.60;9.40;;;7.50;59.00;;;;;;5024901;28;20197;-63
2023/01/23 05:24:49;;;;;;;13.60;9.83;;;7.50;59.20;;;;;;5028534;28;20653;-63
2023/01/23 05:27:15;;;;;;;14.73;9.70;;;7.50;59.40;;;;;;5025080;28;20341;-63
2023/01/23 05:29:41;;;;;;;15.67;11.37;;;7.50;59.40;;;;;;5022239;28;20668;-61
2023/01/23 05:32:07;;;;;;;14.57;11.20;;;7.60;59.40;;;;;;5025262;28;20482;-64
2023/01/23 05:34:32;;;;;;;13.73;10.03;;;7.60;59.30;;;;;;5027482;28;20863;-64
2023/01/23 05:36:58;;;;;;;14.17;10.27;;;7.60;59.30;;;;;;5030436;28;20202;-63
2023/01/23 05:39:23;;;;;;;13.40;10.03;;;7.50;59.40;;;;;;5027528;28;20201;-64
2023/01/23 05:41:49;;;;;;;13.73;9.03;;;7.50;59.40;;;;;;5029729;28;20193;-63
2023/01/23 05:44:15;;;;;;;14.53;9.97;;;7.50;59.30;;;;;;5029864;28;20683;-64
2023/01/23 05:46:40;;;;;;;13.00;10.33;;;7.60;59.20;;;;;;5026453;28;20228;-63
2023/01/23 05:49:06;;;;;;;11.70;9.63;;;7.60;59.10;;;;;;5020401;28;20204;-64
2023/01/23 05:51:32;;;;;;;13.73;9.97;;;7.60;59.70;;;;;;5027242;28;20197;-64
2023/01/23 05:54:01;;;;;;;13.30;9.80;;;7.60;59.00;;;;;;5025221;28;20220;-64
2023/01/23 05:56:27;;;;;;;14.70;10.87;;;7.60;59.00;;;;;;5025778;28;20472;-63
2023/01/23 05:58:53;;;;;;;15.10;11.10;;;7.60;58.90;;;;;;5026866;28;20474;-64
2023/01/23 06:01:19;;;;;;;13.50;10.00;;;7.60;58.90;;;;;;5024702;28;20227;-64
2023/01/23 06:03:45;;;;;;;13.80;10.40;;;7.60;58.90;;;;;;5027204;28;20258;-64
2023/01/23 06:06:11;;;;;;;14.77;10.60;;;7.60;58.70;;;;;;5031651;28;20962;-63
2023/01/23 06:08:36;;;;;;;14.03;11.37;;;7.60;58.60;;;;;;5030704;28;20683;-63
2023/01/23 06:11:02;;;;;;;14.73;12.20;;;7.70;58.70;;;;;;5036842;28;20193;-64
2023/01/23 06:13:28;;;;;;;13.23;10.50;;;7.60;58.70;;;;;;5021428;28;20280;-64
2023/01/23 06:15:54;;;;;;;16.53;11.57;;;7.70;58.70;;;;;;5025945;28;20455;-64
2023/01/23 06:18:21;;;;;;;13.63;10.30;;;7.70;58.80;;;;;;5030075;28;20926;-64
2023/01/23 06:20:46;;;;;;;17.87;11.90;;;7.70;58.80;;;;;;5022484;28;20448;-63
2023/01/23 06:23:13;;;;;;;15.47;10.60;;;7.70;58.70;;;;;;5025375;28;20433;-64
2023/01/23 06:25:38;;;;;;;17.27;10.00;;;7.70;59.70;;;;;;5032244;28;21805;-64
2023/01/23 06:28:04;;;;;;;15.33;10.40;;;8.00;61.40;;;;;;5025098;28;20447;-64
2023/01/23 06:30:30;;;;;;;13.93;9.83;;;8.20;61.00;;;;;;5025829;28;20440;-64
2023/01/23 06:32:55;;;;;;;13.87;10.23;;;8.40;59.70;;;;;;5029609;28;20232;-64
2023/01/23 06:35:21;;;;;;;13.40;10.13;;;8.60;59.30;;;;;;5023922;28;20228;-64
2023/01/23 06:37:47;;;;;;;15.07;10.73;;;8.80;59.20;;;;;;5033291;28;20217;-64
2023/01/23 06:40:13;;;;;;;12.80;9.33;;;8.90;58.60;;;;;;5024503;28;20272;-64
2023/01/23 06:42:40;;;;;;;13.20;9.80;;;9.10;58.20;;;;;;5026268;28;20197;-64
2023/01/23 06:45:07;;;;;;;12.40;8.93;;;9.20;56.90;;;;;;5027418;28;20440;-64
2023/01/23 06:47:32;;;;;;;13.23;9.93;;;9.20;56.40;;;;;;5030501;28;20517;-64
2023/01/23 06:50:00;;;;;;;13.30;9.30;;;9.20;56.40;;;;;;5029000;28;20448;-64
2023/01/23 06:52:26;;;;;;;13.03;10.37;;;9.40;56.70;;;;;;5030889;28;20918;-64
2023/01/23 06:54:52;;;;;;;12.83;10.17;;;9.40;55.80;;;;;;5030366;28;20440;-64
2023/01/23 06:57:17;;;;;;;14.70;10.70;;;9.30;54.80;;;;;;5032300;28;20521;-64
2023/01/23 06:59:43;;;;;;;13.40;9.97;;;9.20;54.50;;;;;;5030183;28;20229;-64
2023/01/23 07:02:10;;;;;;;15.07;11.60;;;9.10;54.40;;;;;;5029917;28;20193;-64
2023/01/23 07:04:35;;;;;;;12.67;9.77;;;9.00;54.90;;;;;;5033238;28;20287;-64
2023/01/23 07:07:01;;;;;;;14.50;10.63;;;9.00;55.00;;;;;;5030753;28;20456;-64
2023/01/23 07:09:27;;;;;;;13.40;10.30;;;9.10;55.40;;;;;;5034135;28;20201;-64
2023/01/23 07:11:52;;;;;;;14.73;10.20;;;9.10;55.40;;;;;;5032361;28;20200;-64
2023/01/23 07:14:18;;;;;;;13.83;9.87;;;9.10;55.20;;;;;;5031108;28;20224;-64
2023/01/23 07:16:43;;;;;;;12.23;9.50;;;9.00;55.20;;;;;;5028015;28;20633;-64
2023/01/23 07:19:09;;;;;;;14.27;11.20;;;9.00;55.30;;;;;;5031808;28;20213;-64
2023/01/23 07:21:34;;;;;;;13.53;9.67;;;9.00;55.50;;;;;;5031696;28;20554;-64
2023/01/23 07:24:00;;;;;;;13.83;10.20;;;9.10;55.50;;;;;;5029555;28;20659;-64
2023/01/23 07:26:26;;;;;;;15.83;10.77;;;9.20;55.90;;;;;;5024767;28;20193;-64
2023/01/23 07:28:52;;;;;;;14.43;10.57;;;9.40;55.80;;;;;;5025817;28;20193;-64
2023/01/23 07:31:18;;;;;;;14.70;10.77;;;9.50;55.30;;;;;;5024660;28;20533;-64
2023/01/23 07:33:44;;;;;;;15.00;11.50;;;9.60;54.90;;;;;;5028816;28;20987;-65
2023/01/23 07:36:12;;;;;;;14.10;10.27;;;9.50;54.30;;;;;;5029479;28;20220;-64
2023/01/23 07:38:38;;;;;;;12.33;9.80;;;9.60;54.60;;;;;;5024634;28;20185;-64
2023/01/23 07:41:04;;;;;;;13.03;10.30;;;9.70;54.70;;;;;;5029852;28;20466;-64
2023/01/23 07:43:29;;;;;;;15.33;11.23;;;9.80;54.80;;;;;;5031750;28;20326;-64
2023/01/23 07:45:58;;;;;;;19.87;15.70;;;9.90;54.60;;;;;;5030804;28;20193;-64
2023/01/23 07:48:24;;;;;;;14.50;12.13;;;10.00;53.70;;;;;;5030263;28;20200;-64
2023/01/23 07:50:49;;;;;;;14.57;10.90;;;10.10;53.60;;;;;;5027476;28;20530;-64
2023/01/23 07:53:15;;;;;;;15.47;11.83;;;10.20;53.10;;;;;;5029949;28;20696;-64
2023/01/23 07:55:41;;;;;;;14.63;10.20;;;10.20;52.30;;;;;;5029330;28;20280;-64
2023/01/23 07:58:06;;;;;;;16.50;10.37;;;10.20;52.30;;;;;;5031126;28;20193;-64
2023/01/23 08:00:32;;;;;;;14.57;10.00;;;10.20;51.80;;;;;;5025964;28;20200;-64
2023/01/23 08:02:57;;;;;;;15.07;10.50;;;10.00;51.40;;;;;;5025719;28;20201;-64
2023/01/23 08:05:23;;;;;;;13.67;10.70;;;9.80;52.20;;;;;;5021173;28;20646;-65
2023/01/23 08:07:49;;;;;;;16.67;11.30;;;9.70;52.50;;;;;;5029501;28;20203;-64
2023/01/23 08:10:14;;;;;;;15.00;10.93;;;9.60;52.60;;;;;;5029181;28;20224;-65
2023/01/23 08:12:40;;;;;;;16.07;11.53;;;9.50;53.20;;;;;;5031980;28;20217;-65
2023/01/23 08:15:06;;;;;;;15.00;11.17;;;9.50;53.40;;;;;;5024413;28;20576;-64
2023/01/23 08:17:32;;;;;;;13.97;10.60;;;9.60;53.70;;;;;;5026562;28;20266;-64
2023/01/23 08:19:57;;;;;;;14.43;10.27;;;9.70;53.90;;;;;;5026927;28;20941;-64
2023/01/23 08:22:23;;;;;;;15.00;10.90;;;9.80;53.50;;;;;;5033208;28;20193;-64
2023/01/23 08:24:49;;;;;;;13.30;10.40;;;9.70;53.20;;;;;;5022253;28;20272;-63
2023/01/23 08:27:14;;;;;;;12.53;8.60;;;9.50;52.30;;;;;;5028115;28;20193;-63
2023/01/23 08:29:40;;;;;;;13.07;9.50;;;9.30;52.80;;;;;;5030458;28;20601;-63
2023/01/23 08:32:05;;;;;;;13.40;9.30;;;9.20;53.00;;;;;;5028463;28;20229;-63
2023/01/23 08:34:32;;;;;;;11.40;8.40;;;9.00;52.60;;;;;;5030717;28;20240;-63
2023/01/23 08:36:58;;;;;;;14.07;9.87;;;8.80;53.20;;;;;;5031493;28;20435;-63
2023/01/23 08:39:23;;;;;;;19.70;12.93;;;8.60;53.60;;;;;;5025682;28;20194;-63
2023/01/23 08:41:49;;;;;;;13.17;9.83;;;8.50;53.80;;;;;;5020976;28;20193;-63
2023/01/23 08:44:15;;;;;;;12.87;9.17;;;8.50;54.30;;;;;;5029441;28;20184;-63
2023/01/23 08:46:43;;;;;;;13.13;9.27;;;8.60;54.50;;;;;;5017487;28;20463;-60
2023/01/23 08:49:08;;;;;;;13.23;10.07;;;8.80;54.60;;;;;;5021546;28;20189;-60
2023/01/23 08:51:34;;;;;;;11.80;8.60;;;8.80;53.90;;;;;;5046764;28;20447;-62
2023/01/23 08:53:59;;;;;;;11.93;9.10;;;8.80;53.70;;;;;;5029530;28;20286;-62
2023/01/23 08:56:25;;;;;;;13.47;8.87;;;8.90;53.90;;;;;;5028050;28;20200;-60
2023/01/23 08:58:51;;;;;;;11.60;8.70;;;9.10;53.50;;;;;;5037299;28;20561;-61
2023/01/23 09:01:22;;;;;;;12.10;10.07;;;9.00;52.90;;;;;;5028085;28;20193;-61
2023/01/23 09:03:49;;;;;;;12.57;10.13;;;9.00;53.00;;;;;;5027216;28;20214;-62
2023/01/23 09:06:17;;;;;;;12.90;8.73;;;8.90;52.70;;;;;;5026424;28;21012;-61
2023/01/23 09:08:42;;;;;;;10.90;8.43;;;8.90;53.20;;;;;;5029267;28;20444;-61
2023/01/23 09:11:10;;;;;;;11.97;8.40;;;8.60;52.70;;;;;;5028467;28;21252;-63
2023/01/23 09:13:35;;;;;;;12.00;8.80;;;8.40;52.50;;;;;;5022030;28;20317;-62
2023/01/23 09:16:02;;;;;;;12.13;8.57;;;8.20;53.00;;;;;;5029343;28;20515;-63
2023/01/23 09:18:28;;;;;;;10.80;7.83;;;8.30;53.30;;;;;;5028231;28;20561;-62
2023/01/23 09:20:55;;;;;;;11.77;7.53;;;8.30;53.10;;;;;;5026349;28;20795;-62
2023/01/23 09:23:21;;;;;;;11.67;8.60;;;8.20;53.00;;;;;;5028663;28;20771;-62
2023/01/23 09:25:47;;;;;;;11.60;9.13;;;8.00;53.40;;;;;;5024144;28;20443;-62
2023/01/23 09:28:13;;;;;;;14.23;8.40;;;7.60;53.80;;;;;;5031628;28;20949;-62
2023/01/23 09:30:38;;;;;;;12.43;7.83;;;7.40;54.40;;;;;;5033899;28;20201;-62
2023/01/23 09:33:04;;;;;;;9.40;7.23;;;7.40;54.90;;;;;;5031882;28;20335;-62
2023/01/23 09:35:31;;;;;;;11.70;7.83;;;7.30;54.80;;;;;;5032624;28;20493;-62
2023/01/23 09:37:59;;;;;;;9.40;6.83;;;7.20;55.00;;;;;;5027896;28;20856;-63
2023/01/23 09:40:47;;;;;;;10.37;7.37;;;7.10;55.40;;;;;;5034361;28;20511;-62
2023/01/23 09:43:25;;;;;;;10.60;7.13;;;7.20;55.30;;;;;;5019143;28;20557;-63
2023/01/23 09:46:16;;;;;;;11.00;8.30;;;7.40;55.50;;;;;;5032107;28;20452;-62
2023/01/23 09:48:46;;;;;;;12.80;8.17;;;7.30;55.00;;;;;;5032927;28;20498;-62
2023/01/23 09:51:12;;;;;;;11.17;7.70;;;7.20;54.90;;;;;;5034030;28;20447;-62
2023/01/23 09:53:39;;;;;;;10.90;8.53;;;7.10;55.70;;;;;;5033060;28;20483;-62
2023/01/23 09:56:16;;;;;;;18.17;11.60;;;7.10;55.90;;;;;;5048197;28;20283;-62
2023/01/23 09:59:13;;;;;;;20.40;12.23;;;7.20;55.60;;;;;;5033609;28;20439;-63
2023/01/23 10:01:39;;;;;;;16.43;10.87;;;7.30;55.40;;;;;;5036933;28;20461;-62
2023/01/23 10:04:05;;;;;;;14.17;9.50;;;7.40;55.50;;;;;;5037389;28;20514;-62
2023/01/23 10:06:44;;;;;;;17.77;10.63;;;7.50;55.30;;;;;;5034118;28;20471;-62
2023/01/23 10:09:24;;;;;;;12.33;8.23;;;7.70;55.20;;;;;;5033569;28;20420;-63
2023/01/23 10:11:56;;;;;;;10.73;7.43;;;7.60;55.20;;;;;;5030537;28;20578;-63
2023/01/23 10:14:41;;;;;;;9.80;7.77;;;7.70;55.20;;;;;;5029663;28;20566;-63
2023/01/23 10:17:21;;;;;;;10.53;8.30;;;7.80;55.10;;;;;;5026129;28;20452;-63
2023/01/23 10:20:20;;;;;;;11.83;9.20;;;8.00;55.10;;;;;;5030136;28;20450;-63
2023/01/23 10:22:50;;;;;;;10.83;7.20;;;8.10;54.30;;;;;;5029028;28;20457;-63
2023/01/23 10:25:21;;;;;;;9.93;8.23;;;7.80;54.00;;;;;;5030655;28;20451;-63
2023/01/23 10:27:50;;;;;;;12.00;8.40;;;7.80;54.50;;;;;;5033775;28;20416;-63
2023/01/23 10:30:37;;;;;;;12.40;8.00;;;7.90;54.90;;;;;;5029789;28;20941;-63
2023/01/23 10:33:16;;;;;;;10.83;7.50;;;7.90;54.80;;;;;;5022935;28;20484;-63
2023/01/23 10:35:52;;;;;;;13.60;8.73;;;8.10;54.80;;;;;;5031844;28;20474;-63
2023/01/23 10:38:23;;;;;;;10.40;8.50;;;8.10;54.50;;;;;;5032756;28;20494;-63
2023/01/23 10:43:34;;;;;;;9.57;6.87;;;8.30;53.70;;;;;;5029816;28;20971;-63
2023/01/23 10:46:01;;;;;;;12.27;9.13;;;8.40;53.70;;;;;;5029569;28;20455;-63
2023/01/23 10:48:32;;;;;;;12.00;9.60;;;8.50;54.10;;;;;;5028656;28;20504;-63
2023/01/23 10:51:03;;;;;;;10.83;8.53;;;8.60;53.90;;;;;;5025791;28;20450;-63
2023/01/23 10:53:29;;;;;;;12.07;8.97;;;8.60;53.80;;;;;;5028455;28;20498;-63
2023/01/23 10:55:59;;;;;;;13.10;10.07;;;8.70;53.60;;;;;;5028541;28;20461;-62
2023/01/23 10:58:28;;;;;;;13.70;10.73;;;8.90;53.80;;;;;;5031054;28;20447;-60
2023/01/23 11:00:53;;;;;;;10.53;9.43;;;9.00;53.60;;;;;;5028223;28;20811;-60
2023/01/23 11:03:19;;;;;;;11.20;8.40;;;9.10;53.30;;;;;;5035732;28;20444;-61
2023/01/23 11:05:54;;;;;;;11.83;8.90;;;9.00;52.70;;;;;;5025219;28;20194;-60
2023/01/23 11:08:26;;;;;;;13.10;9.60;;;9.00;53.20;;;;;;5026048;28;20303;-63
2023/01/23 11:10:52;;;;;;;10.70;8.37;;;8.90;53.10;;;;;;5025338;28;20539;-62
2023/01/23 11:13:26;;;;;;;11.60;8.53;;;9.00;53.20;;;;;;5028116;28;20939;-63
2023/01/23 11:15:52;;;;;;;11.17;8.50;;;9.10;53.10;;;;;;5029651;28;20444;-63
2023/01/23 11:18:32;;;;;;;12.00;8.50;;;9.10;53.20;;;;;;5029757;28;20443;-63
2023/01/23 11:20:59;;;;;;;12.10;9.27;;;9.10;52.90;;;;;;5030834;28;20435;-63
2023/01/23 11:23:25;;;;;;;13.00;8.37;;;9.10;53.20;;;;;;5038382;28;20448;-63
2023/01/23 11:25:52;;;;;;;14.63;9.70;;;9.20;53.30;;;;;;5030041;28;20523;-63
2023/01/23 11:28:26;;;;;;;11.90;9.80;;;9.40;53.10;;;;;;5030263;28;20441;-63
2023/01/23 11:30:51;;;;;;;14.30;9.47;;;9.40;52.60;;;;;;5029044;28;20472;-63
2023/01/23 11:33:35;;;;;;;11.60;9.37;;;9.50;52.50;;;;;;5025535;28;20492;-63
2023/01/23 11:36:16;;;;;;;11.37;9.50;;;9.70;52.60;;;;;;5024955;28;20272;-63
2023/01/23 11:39:41;;;;;;;11.10;8.20;;;9.80;52.40;;;;;;5022721;28;20503;-63
2023/01/23 11:42:10;;;;;;;13.20;9.40;;;9.80;52.00;;;;;;5013748;28;20487;-63
2023/01/23 11:44:37;;;;;;;11.63;8.93;;;9.70;52.00;;;;;;5021230;28;20448;-63
2023/01/23 11:47:24;;;;;;;15.37;10.60;;;9.50;52.00;;;;;;5019155;28;20459;-63
2023/01/23 11:49:58;;;;;;;14.20;9.50;;;9.50;52.30;;;;;;5024214;28;20444;-62
2023/01/23 11:52:33;;;;;;;12.47;8.97;;;9.30;52.20;;;;;;5025297;28;20435;-63
2023/01/23 11:55:23;;;;;;;13.33;9.67;;;9.30;52.80;;;;;;5029238;28;20447;-62
2023/01/23 11:58:13;;;;;;;12.73;9.07;;;9.20;52.70;;;;;;5020371;28;20464;-63
2023/01/23 12:00:41;;;;;;;15.50;11.17;;;9.30;53.00;;;;;;5029511;28;20477;-62
2023/01/23 12:03:33;;;;;;;14.60;10.80;;;9.20;53.20;;;;;;5028892;28;20452;-63
2023/01/23 12:06:18;;;;;;;13.37;9.83;;;9.20;53.30;;;;;;5030237;28;20531;-62
2023/01/23 12:09:09;;;;;;;14.60;10.50;;;9.00;53.50;;;;;;5029716;28;20458;-62
2023/01/23 12:11:43;;;;;;;15.90;10.63;;;9.00;53.70;;;;;;5029186;28;20553;-62
2023/01/23 12:14:38;;;;;;;12.20;10.00;;;9.10;53.80;;;;;;5027422;28;20487;-62
2023/01/23 12:17:26;;;;;;;14.73;11.43;;;9.10;53.50;;;;;;5029803;28;20788;-62
2023/01/23 12:20:16;;;;;;;16.70;11.07;;;9.10;53.40;;;;;;5027223;28;20523;-63
2023/01/23 12:23:20;;;;;;;15.93;12.10;;;9.20;53.60;;;;;;5029291;28;20821;-62
2023/01/23 12:26:13;;;;;;;15.47;10.53;;;9.10;54.00;;;;;;5027437;28;20801;-63
2023/01/23 12:28:39;;;;;;;13.47;9.90;;;9.20;54.50;;;;;;5030188;28;20530;-62
2023/01/23 12:31:26;;;;;;;13.47;10.60;;;9.20;54.50;;;;;;5027825;28;20570;-63
2023/01/23 12:34:16;;;;;;;15.40;10.70;;;9.10;54.40;;;;;;5031375;28;20225;-62
2023/01/23 12:37:06;;;;;;;15.57;10.40;;;9.00;55.10;;;;;;5029447;28;20476;-62
2023/01/23 12:40:11;;;;;;;14.10;10.07;;;9.10;54.50;;;;;;5030207;28;20494;-62
2023/01/23 12:42:40;;;;;;;15.33;9.57;;;9.10;54.60;;;;;;5023173;28;20444;-63
2023/01/23 12:45:21;;;;;;;13.47;9.83;;;9.10;54.20;;;;;;5024541;28;20547;-63
2023/01/23 12:47:51;;;;;;;15.00;11.90;;;9.20;54.30;;;;;;5024587;28;20456;-63
2023/01/23 12:50:29;;;;;;;13.17;8.67;;;9.00;54.50;;;;;;5022779;28;20443;-62
2023/01/23 12:53:02;;;;;;;14.30;8.80;;;8.90;54.60;;;;;;5025182;28;20516;-62
2023/01/23 12:55:35;;;;;;;13.40;9.00;;;8.90;54.90;;;;;;5028249;28;20455;-63
2023/01/23 12:58:01;;;;;;;14.50;10.10;;;8.90;54.90;;;;;;5026339;28;20437;-63
2023/01/23 13:00:44;;;;;;;13.80;10.10;;;8.90;55.20;;;;;;5027447;28;20486;-62
2023/01/23 13:03:31;;;;;;;14.10;10.67;;;9.00;55.10;;;;;;5031739;28;20451;-62
2023/01/23 13:05:59;;;;;;;12.43;9.53;;;9.00;55.30;;;;;;5028679;28;20458;-62
2023/01/23 13:08:34;;;;;;;17.17;10.80;;;9.10;55.20;;;;;;5027325;28;20452;-62
2023/01/23 13:11:41;;;;;;;28.53;18.43;;;9.20;54.80;;;;;;5028959;28;20540;-62
2023/01/23 13:14:20;;;;;;;14.97;10.63;;;9.30;54.80;;;;;;5032749;28;20558;-62